Airfield :
LOGIN :

Register | Disclaimer

   EN    FR    IT 

 










Legend :    VFR   Marginal VFR   IFR   Intensive IFR   Very Intensive IFR
Visi :
Ceiling :
>= 8 km
>= 3000ft
5 to 8 km
1000 to 3000 ft
1500m to 5 km
500 to 1000 ft
800 to 1500m
200 to 500 ft
< 800m
< 200 ft
Symbols :   Thunderstorms  Fog  Heavy snow  Heavy precipitations  Wind > 20 kt
SIGMETs :     Misc.  Thunderstorms  Icing  Turbulence  Mountain Waves  Volcanic Ashes






- Airport Elevation : 319 ft


EIME - Casement Air Base

CURRENT METAR :
  • 171900Z 22004KT 9999 FEW019 BKN070 14/13 Q1011

EXPIRED METARs :
  • 171800Z 27008KT 9999 FEW030 SCT047 BKN070 16/13 Q1010
  • 171700Z 27005KT 9999 FEW028 SCT050 17/14 Q1010

TAF TAF EIME
Valid from the 17 at 18:00 until the 18 at 03:00 UTC


171700Z 1718/1803 25006KT 9999 FEW020 SCT030
TEMPO 1723/1803 3000 BR
PROB30
TEMPO 1801/1803 0800 FG BKN001



MET'MAP, your aeronautical weather chart ! - Copyright ORBIFLY December 2007 - Disclaimer

ORBIFLY MET'MAP TEAM :

Programming & Development : Alexandra Zaïnal
Concept & original design : Baudouin d'Aumeries
Assistance for programming : Marc-Olivier Méhu
Technical & hardware support : Manuel Goepfert

Contact : metmap@orbifly.com




SOURCES & CREDITS :

   NOAA